FW3809 Weather Reports


Display with metric or nautical units.
time (UTC)temp
F
wind
direction
speed
MPH
gust
MPH
rain 1hr
in
rain 24hr
in
rain mn
in
humidity
%
barometer
mb
20210122031209 66 223 0.0 0.0 0.04 0.21 0.21 98 1012.8
20210122030710 66 222 0.0 0.0 0.04 0.21 0.21 98 1012.9
20210122030142 66 223 0.0 0.0 0.03 0.20 0.20 98 1012.9
20210122025616 66 223 0.0 0.0 0.03 0.20 0.20 98 1012.9
20210122025110 66 223 0.0 3.0 0.02 0.19 0.19 98 1012.9
20210122024609 66 223 1.0 3.0 0.02 0.19 0.19 97 1013.0
20210122024106 66 223 0.0 2.0 0.01 0.18 0.19 98 1013.0
20210122023600 66 223 0.0 2.0 0.01 0.18 0.18 98 1013.0
20210122023034 66 223 0.0 0.0 0.02 0.18 0.18 98 1013.0
20210122022530 66 223 0.0 0.0 0.02 0.18 0.18 98 1013.0
20210122022027 67 223 0.0 0.0 0.02 0.17 0.17 98 1013.1
20210122021528 67 223 0.0 0.0 0.02 0.17 0.17 97 1013.2
20210122021001 66 223 0.0 1.0 0.02 0.17 0.17 97 1013.2
20210122020454 67 223 0.0 2.0 0.03 0.17 0.17 97 1013.2
20210122015928 67 223 0.0 2.0 0.03 0.17 0.17 98 1013.2
20210122015401 67 223 0.0 2.0 0.04 0.17 0.17 98 1013.2
20210122014836 67 223 1.0 2.0 0.05 0.17 0.17 97 1013.2
20210122014307 67 223 1.0 3.0 0.05 0.17 0.17 97 1013.2
20210122013805 67 223 1.0 2.0 0.06 0.17 0.17 97 1013.2
20210122013253 67 223 1.0 2.0 0.06 0.17 0.17 97 1013.1
20210122012751 67 223 1.0 2.0 0.05 0.16 0.16 97 1013.1
20210122012230 67 223 1.0 3.0 0.05 0.15 0.15 97 1013.0
20210122011723 67 223 0.0 3.0 0.05 0.15 0.15 97 1013.0
20210122011205 67 223 1.0 3.0 0.06 0.15 0.15 97 1012.9
20210122010706 67 223 1.0 3.0 0.05 0.14 0.14 97 1012.9
20210122010139 67 223 2.0 4.0 0.05 0.14 0.14 97 1012.8
20210122005634 67 223 2.0 4.0 0.05 0.13 0.13 97 1012.8
20210122005108 67 206 1.0 3.0 0.06 0.13 0.13 97 1012.8
20210122004607 67 206 1.0 3.0 0.06 0.12 0.12 97 1012.8
20210122004040 67 206 1.0 3.0 0.06 0.11 0.12 97 1012.7
20210122003531 67 206 1.0 3.0 0.06 0.11 0.11 97 1012.8
20210122003033 67 206 1.0 2.0 0.06 0.11 0.11 97 1012.7
20210122002522 68 206 1.0 2.0 0.06 0.10 0.10 97 1012.7
20210122002025 68 206 1.0 3.0 0.06 0.10 0.10 97 1012.6
20210122001509 68 206 1.0 3.0 0.06 0.09 0.10 97 1012.6
20210122000950 67 206 1.0 3.0 0.06 0.09 0.09 97 1012.6
20210122000446 67 206 0.0 3.0 0.06 0.09 0.09 97 1012.7
20210121235921 67 206 0.0 3.0 0.05 0.08 0.09 97 1012.6
20210121235411 67 206 1.0 3.0 0.05 0.07 0.08 97 1012.6
20210121234911 67 206 1.0 3.0 0.05 0.07 0.07 97 1012.6
20210121234352 67 206 0.0 1.0 0.03 0.05 0.05 97 1012.6
20210121233830 67 206 0.0 1.0 0.03 0.05 0.05 97 1012.5
20210121233314 67 206 0.0 1.0 0.03 0.05 0.05 97 1012.5
20210121232814 67 206 0.0 1.0 0.03 0.05 0.05 97 1012.5
20210121232259 68 206 0.0 1.0 0.02 0.04 0.04 97 1012.5
20210121231725 68 206 0.0 1.0 0.02 0.04 0.04 97 1012.5
20210121231204 68 206 0.0 0.0 0.01 0.03 0.03 97 1012.5
20210121230640 68 206 0.0 0.0 0.01 0.03 0.03 97 1012.4
20210121230143 68 206 0.0 2.0 0.01 0.03 0.03 96 1012.5
20210121225634 68 206 0.0 2.0 0.01 0.03 0.03 97 1012.5
20210121225109 68 206 0.0 1.0 0.00 0.02 0.02 97 1012.5
20210121224540 68 206 0.0 1.0 0.00 0.02 0.02 97 1012.6
20210121224029 68 206 0.0 2.0 0.00 0.02 0.02 97 1012.6
20210121223528 68 205 1.0 3.0 0.00 0.02 0.02 97 1012.6
20210121223037 68 206 1.0 4.0 0.00 0.02 0.02 97 1012.7
20210121222530 68 205 1.0 4.0 0.00 0.02 0.02 97 1012.7
20210121221937 68 205 1.0 4.0 0.01 0.02 0.02 97 1012.7
20210121221434 68 205 1.0 3.0 0.01 0.02 0.02 96 1012.7
20210121220905 67 218 2.0 5.0 0.01 0.02 0.02 96 1012.8
20210121220410 67 205 3.0 5.0 0.01 0.02 0.02 96 1012.8
20210121215838 67 199 2.0 5.0 0.01 0.02 0.02 96 1012.8
20210121215312 67 202 1.0 5.0 0.01 0.02 0.02 96 1012.8
20210121214810 67 258 0.0 3.0 0.01 0.02 0.02 96 1012.9
20210121214242 67 259 0.0 0.0 0.01 0.02 0.02 96 1012.9
20210121213741 67 260 0.0 0.0 0.01 0.02 0.02 96 1013.0
20210121213214 67 259 0.0 1.0 0.01 0.02 0.02 96 1013.0
20210121212710 67 259 0.0 2.0 0.01 0.02 0.02 96 1013.1
20210121212143 67 259 0.0 2.0 0.01 0.02 0.02 96 1013.2
20210121211643 67 259 1.0 3.0 0.00 0.01 0.01 96 1013.2
20210121211114 67 259 1.0 3.0 0.00 0.01 0.01 96 1013.2
20210121210551 67 259 0.0 2.0 0.00 0.01 0.01 96 1013.3
20210121210045 67 259 0.0 2.0 0.00 0.01 0.01 96 1013.4
20210121205520 67 259 0.0 3.0 0.00 0.01 0.01 96 1013.4
20210121204952 67 259 0.0 3.0 0.00 0.01 0.01 96 1013.4
20210121204448 67 259 1.0 4.0 0.00 0.01 0.01 96 1013.5
20210121203921 66 259 1.0 4.0 0.00 0.01 0.01 95 1013.6
20210121203400 67 259 1.0 3.0 0.00 0.01 0.01 95 1013.6
20210121202855 67 259 2.0 3.0 0.00 0.01 0.01 95 1013.7
20210121202320 67 259 1.0 2.0 0.00 0.01 0.01 95 1013.7
20210121201756 67 259 1.0 6.0 0.00 0.01 0.01 95 1013.8
20210121201249 67 259 2.0 6.0 0.00 0.01 0.01 95 1013.8
20210121200745 67 260 2.0 6.0 0.00 0.01 0.01 95 1013.9
20210121200241 67 258 2.0 6.0 0.00 0.01 0.01 95 1014.0
20210121195717 66 266 2.0 4.0 0.00 0.01 0.01 95 1014.0
20210121195150 66 266 2.0 4.0 0.00 0.01 0.01 95 1014.1
20210121194628 66 267 3.0 6.0 0.00 0.01 0.01 95 1014.1
20210121194124 66 272 2.0 6.0 0.00 0.01 0.01 95 1014.2
20210121193617 66 280 2.0 4.0 0.00 0.01 0.01 95 1014.2
20210121193114 66 285 2.0 5.0 0.00 0.01 0.01 96 1014.3
20210121192546 66 245 2.0 6.0 0.00 0.01 0.01 96 1014.5
20210121192044 66 245 2.0 6.0 0.00 0.01 0.01 96 1014.6
20210121191545 66 286 3.0 5.0 0.00 0.01 0.01 96 1014.7
20210121191022 65 241 3.0 9.0 0.00 0.01 0.01 96 1014.8
20210121190520 65 217 4.0 9.0 0.00 0.01 0.01 96 1014.9
20210121185957 65 247 3.0 8.0 0.00 0.01 0.01 96 1015.0
20210121185458 65 250 3.0 8.0 0.00 0.01 0.01 97 1015.1
20210121184931 65 226 3.0 8.0 0.00 0.01 0.01 97 1015.2
20210121184406 65 224 3.0 6.0 0.00 0.01 0.01 97 1015.2
20210121183854 65 245 3.0 7.0 0.00 0.01 0.01 97 1015.3
20210121183354 65 220 3.0 7.0 0.00 0.01 0.01 97 1015.4
20210121182852 65 249 3.0 5.0 0.00 0.01 0.01 97 1015.5
20210121182356 65 231 3.0 7.0 0.00 0.01 0.01 97 1015.7
20210121181841 65 241 3.0 7.0 0.00 0.01 0.01 97 1015.8
20210121181340 65 222 3.0 6.0 0.00 0.01 0.01 97 1015.9
20210121180835 65 232 2.0 5.0 0.00 0.01 0.01 97 1016.0
20210121180331 65 231 3.0 7.0 0.00 0.01 0.01 97 1016.0
20210121175831 64 245 3.0 7.0 0.00 0.01 0.01 97 1016.2
20210121175312 64 249 3.0 7.0 0.00 0.01 0.01 97 1016.4
20210121174759 64 233 3.0 7.0 0.00 0.01 0.01 97 1016.5
20210121174255 64 246 3.0 5.0 0.00 0.01 0.01 97 1016.7
20210121173737 64 233 3.0 7.0 0.00 0.01 0.01 97 1016.9
20210121173220 64 212 3.0 7.0 0.00 0.01 0.01 97 1017.0
20210121172720 64 211 2.0 4.0 0.00 0.01 0.01 97 1017.0
20210121172222 64 239 2.0 4.0 0.00 0.01 0.01 97 1017.1
20210121171706 64 244 1.0 4.0 0.00 0.01 0.01 97 1017.2
20210121171139 63 244 1.0 3.0 0.00 0.01 0.01 97 1017.3
20210121170614 63 244 2.0 4.0 0.00 0.01 0.01 97 1017.4
20210121170048 63 243 2.0 4.0 0.00 0.01 0.01 97 1017.5
20210121165540 63 243 2.0 4.0 0.00 0.01 0.01 97 1017.6
20210121165053 63 243 2.0 4.0 0.00 0.01 0.01 97 1017.6
20210121164520 63 245 2.0 4.0 0.00 0.01 0.01 97 1017.7
20210121164021 63 263 2.0 4.0 0.00 0.01 0.01 97 1017.7
20210121163520 63 256 1.0 3.0 0.00 0.01 0.01 97 1017.8
20210121162940 63 234 1.0 3.0 0.00 0.01 0.01 97 1017.8
20210121162415 63 234 1.0 3.0 0.00 0.01 0.01 97 1017.9
20210121161847 63 234 1.0 3.0 0.00 0.01 0.01 97 1017.9
20210121161344 63 234 1.0 2.0 0.00 0.01 0.01 98 1018.0
20210121160823 63 234 1.0 3.0 0.00 0.01 0.01 97 1018.0
20210121160253 63 234 1.0 3.0 0.00 0.01 0.01 97 1018.1
20210121155748 63 234 1.0 3.0 0.00 0.01 0.01 97 1018.1
20210121155222 63 234 1.0 2.0 0.00 0.01 0.01 98 1018.1
20210121154656 63 234 1.0 2.0 0.00 0.01 0.01 98 1018.1
20210121154129 63 234 1.0 3.0 0.00 0.01 0.01 98 1018.0
20210121153624 63 234 1.0 3.0 0.00 0.01 0.01 98 1018.0
20210121153058 63 234 1.0 3.0 0.00 0.01 0.01 98 1018.0
20210121152531 62 234 1.0 3.0 0.01 0.01 0.01 98 1017.9
20210121152030 62 234 0.0 2.0 0.01 0.01 0.01 98 1017.9
20210121151516 62 235 0.0 2.0 0.01 0.01 0.01 98 1017.7
20210121150937 62 235 1.0 2.0 0.01 0.01 0.01 98 1017.8
20210121150433 62 234 1.0 3.0 0.01 0.01 0.01 97 1017.8
20210121145907 62 234 2.0 3.0 0.01 0.01 0.01 98 1017.8
20210121145410 62 234 1.0 3.0 0.01 0.01 0.01 98 1017.9
20210121144900 62 234 1.0 2.0 0.01 0.01 0.01 98 1017.8
20210121144356 62 234 1.0 2.0 0.01 0.01 0.01 98 1017.7
20210121143855 62 234 1.0 2.0 0.01 0.01 0.01 98 1017.6
20210121143405 62 234 1.0 2.0 0.01 0.01 0.01 98 1017.7
20210121142824 62 234 1.0 2.0 0.01 0.01 0.01 98 1017.7
20210121142320 62 234 1.0 2.0 0.00 0.00 0.00 98 1017.7
20210121141756 61 234 1.0 2.0 0.00 0.00 0.00 98 1017.7
20210121141250 61 234 0.0 2.0 0.00 0.00 0.00 97 1017.7
20210121140748 61 234 0.0 2.0 0.00 0.00 0.00 97 1017.7
20210121140222 61 234 1.0 2.0 0.00 0.00 0.00 97 1017.6
20210121135655 61 234 1.0 3.0 0.00 0.00 0.00 97 1017.7
20210121135128 61 234 1.0 3.0 0.00 0.00 0.00 97 1017.8
20210121134559 61 234 1.0 3.0 0.00 0.00 0.00 97 1017.8
20210121134104 61 234 1.0 3.0 0.00 0.00 0.00 97 1017.8
20210121133532 61 234 1.0 2.0 0.00 0.00 0.00 97 1017.8
20210121133016 62 234 1.0 2.0 0.00 0.00 0.00 97 1017.7
20210121132517 62 234 1.0 2.0 0.00 0.00 0.00 97 1017.8
20210121131934 62 234 1.0 2.0 0.00 0.00 0.00 97 1017.7
20210121131409 62 234 1.0 3.0 0.00 0.00 0.00 97 1017.7
20210121130904 62 234 2.0 3.0 0.00 0.00 0.00 97 1017.7
20210121130401 62 234 2.0 4.0 0.00 0.00 0.00 97 1017.7
20210121125900 63 234 1.0 4.0 0.00 0.00 0.00 97 1017.7
20210121125334 63 233 1.0 4.0 0.00 0.00 0.00 97 1017.7
20210121124805 63 233 1.0 4.0 0.00 0.00 0.00 97 1017.7
20210121124307 63 233 2.0 4.0 0.00 0.00 0.00 97 1017.8
20210121123746 63 233 2.0 4.0 0.00 0.00 0.00 97 1017.9
20210121123246 63 243 1.0 3.0 0.00 0.00 0.00 97 1017.8
20210121122722 63 243 2.0 3.0 0.00 0.00 0.00 97 1017.9
20210121122210 63 243 2.0 3.0 0.00 0.00 0.00 97 1018.0
20210121121711 63 243 2.0 3.0 0.00 0.00 0.00 97 1017.9
20210121121227 63 244 2.0 5.0 0.00 0.00 0.00 97 1017.9
20210121120751 63 243 1.0 5.0 0.00 0.00 0.00 97 1018.0
20210121120214 63 199 1.0 3.0 0.00 0.00 0.00 97 1017.8
20210121115705 63 199 1.0 3.0 0.00 0.00 0.00 97 1017.7
20210121115159 63 199 2.0 3.0 0.00 0.00 0.00 97 1017.8
20210121114704 63 199 2.0 4.0 0.00 0.00 0.00 97 1017.8
20210121114141 63 199 2.0 4.0 0.00 0.00 0.00 97 1017.9
20210121113633 63 199 2.0 4.0 0.00 0.00 0.00 97 1017.9
20210121113120 63 202 2.0 4.0 0.00 0.00 0.00 97 1017.9
20210121112621 63 210 1.0 4.0 0.00 0.00 0.00 97 1017.9
20210121112123 62 210 1.0 3.0 0.00 0.00 0.00 97 1017.7
20210121111556 62 210 2.0 4.0 0.00 0.00 0.00 97 1017.7
20210121111046 62 210 2.0 5.0 0.00 0.00 0.00 97 1017.5
20210121110535 62 210 2.0 5.0 0.00 0.00 0.00 97 1017.7
20210121110023 62 219 2.0 5.0 0.00 0.00 0.00 97 1017.8
20210121105457 62 208 2.0 6.0 0.00 0.00 0.00 97 1017.8
20210121104947 62 248 2.0 6.0 0.00 0.00 0.00 97 1017.8
20210121104425 62 212 2.0 3.0 0.00 0.00 0.00 97 1017.8
20210121103855 62 212 2.0 3.0 0.00 0.00 0.00 97 1017.9
20210121103329 62 212 1.0 3.0 0.00 0.00 0.00 97 1017.9
20210121102803 62 195 1.0 4.0 0.00 0.00 0.00 97 1017.8
20210121102305 62 197 2.0 4.0 0.00 0.00 0.00 97 1017.8
20210121101801 62 197 2.0 4.0 0.00 0.00 0.00 97 1017.8
20210121101253 62 195 1.0 4.0 0.00 0.00 0.00 97 1017.7
20210121100751 62 196 2.0 5.0 0.00 0.00 0.00 97 1017.9
20210121100252 62 195 2.0 5.0 0.00 0.00 0.00 97 1018.0
20210121095723 62 180 2.0 3.0 0.00 0.00 0.00 97 1018.1
20210121095201 62 180 2.0 3.0 0.00 0.00 0.00 97 1018.2
20210121094656 62 180 1.0 3.0 0.00 0.00 0.00 97 1018.2
20210121094126 62 181 2.0 3.0 0.00 0.00 0.00 97 1018.3
20210121093624 62 172 2.0 6.0 0.00 0.00 0.00 97 1018.3
20210121093058 62 172 3.0 5.0 0.00 0.00 0.00 96 1018.3
20210121092530 62 185 3.0 6.0 0.00 0.00 0.00 96 1018.3
20210121092034 62 162 2.0 4.0 0.00 0.00 0.00 96 1018.4
20210121091525 62 225 2.0 4.0 0.00 0.00 0.00 96 1018.4
20210121091022 62 226 2.0 3.0 0.00 0.00 0.00 96 1018.6
20210121090457 62 237 2.0 7.0 0.00 0.00 0.00 96 1018.8
20210121085952 62 239 3.0 8.0 0.00 0.00 0.00 97 1018.9
20210121085425 62 220 3.0 8.0 0.00 0.00 0.00 96 1019.0
20210121084902 62 238 4.0 8.0 0.00 0.00 0.00 96 1019.1
20210121084402 63 243 4.0 8.0 0.00 0.00 0.00 96 1019.1
20210121083859 63 242 3.0 7.0 0.00 0.00 0.00 96 1019.1
20210121083351 62 189 4.0 7.0 0.00 0.00 0.00 96 1019.1
20210121082823 62 176 4.0 6.0 0.00 0.00 0.00 96 1019.2
20210121082319 62 167 3.0 6.0 0.00 0.00 0.00 96 1019.4
20210121081755 62 171 3.0 6.0 0.00 0.00 0.00 96 1019.4
20210121081228 62 170 2.0 5.0 0.00 0.00 0.00 96 1019.4
20210121080701 62 162 1.0 4.0 0.00 0.00 0.00 96 1019.5
20210121080157 62 162 0.0 2.0 0.00 0.00 0.00 96 1019.5
20210121075631 62 162 1.0 2.0 0.00 0.00 0.00 96 1019.5
20210121075128 62 162 1.0 2.0 0.00 0.00 0.00 96 1019.5
20210121074625 62 162 1.0 4.0 0.00 0.00 0.00 96 1019.6
20210121074122 62 162 1.0 4.0 0.00 0.00 0.00 96 1019.7
20210121073619 62 162 1.0 4.0 0.00 0.00 0.00 96 1019.8
20210121073123 62 163 1.0 4.0 0.00 0.00 0.00 96 1019.9
20210121072549 62 162 1.0 4.0 0.00 0.00 0.00 96 1020.0
20210121072049 62 162 2.0 5.0 0.00 0.00 0.00 96 1020.0
20210121071531 62 168 2.0 5.0 0.00 0.00 0.00 96 1020.0
20210121071032 62 166 2.0 5.0 0.00 0.00 0.00 96 1019.9
20210121070516 62 166 2.0 5.0 0.00 0.00 0.00 96 1019.9
20210121070032 62 170 2.0 5.0 0.00 0.00 0.00 96 1019.9
20210121065434 62 148 2.0 5.0 0.00 0.00 0.00 96 1020.0
20210121064936 61 160 3.0 6.0 0.00 0.00 0.00 96 1020.0
20210121064412 61 168 3.0 6.0 0.00 0.00 0.00 96 1020.0
20210121063908 61 151 2.0 6.0 0.00 0.00 0.00 96 1020.0
20210121063359 61 145 2.0 6.0 0.00 0.00 0.00 96 1020.2
20210121062840 61 145 2.0 6.0 0.00 0.00 0.00 96 1020.3
20210121062345 61 167 2.0 6.0 0.00 0.00 0.00 96 1020.4
20210121061841 61 168 3.0 6.0 0.00 0.00 0.00 96 1020.4
20210121061341 61 169 3.0 6.0 0.00 0.00 0.00 96 1020.4
20210121060838 61 143 2.0 7.0 0.00 0.00 0.00 96 1020.4
20210121060319 61 138 3.0 6.0 0.00 0.00 0.00 96 1020.3
20210121055801 61 138 3.0 7.0 0.00 0.00 0.00 96 1020.3
20210121055256 61 151 3.0 9.0 0.00 0.00 0.00 96 1020.4
20210121054728 61 158 3.0 9.0 0.00 0.00 0.00 96 1020.5
20210121054227 61 177 3.0 7.0 0.00 0.00 0.00 96 1020.5
20210121053658 61 152 3.0 7.0 0.00 0.00 0.00 96 1020.6
20210121053157 61 140 3.0 7.0 0.00 0.00 0.00 96 1020.7
20210121052654 61 156 4.0 8.0 0.00 0.00 0.00 96 1020.8
20210121052126 61 132 3.0 8.0 0.00 0.00 0.00 96 1020.9
20210121051623 61 174 3.0 9.0 0.00 0.00 0.00 96 1021.1
20210121051057 61 135 3.0 9.0 0.00 0.00 0.00 96 1021.2
20210121050531 61 149 2.0 7.0 0.00 0.00 0.00 96 1021.2
20210121050029 61 134 3.0 5.0 0.00 0.00 0.00 96 1021.3
20210121045510 61 183 3.0 8.0 0.00 0.00 0.00 96 1021.4
20210121044959 61 141 2.0 6.0 0.00 0.00 0.00 96 1021.5
20210121044430 61 154 2.0 6.0 0.00 0.00 0.00 96 1021.6
20210121043928 61 126 2.0 5.0 0.00 0.00 0.00 96 1021.7
20210121043405 61 129 2.0 4.0 0.00 0.00 0.00 96 1021.8
20210121042835 61 160 2.0 7.0 0.00 0.00 0.00 96 1021.8
20210121042333 61 146 2.0 7.0 0.00 0.00 0.00 96 1021.7
20210121041805 61 137 3.0 7.0 0.00 0.00 0.00 95 1021.8
20210121041300 61 139 3.0 7.0 0.00 0.00 0.00 95 1021.9
20210121040734 61 166 2.0 6.0 0.00 0.00 0.00 95 1021.9
20210121040232 61 126 3.0 6.0 0.00 0.00 0.00 95 1022.0
20210121035730 61 161 3.0 8.0 0.00 0.00 0.00 95 1021.9
20210121035229 61 141 4.0 7.0 0.00 0.00 0.00 95 1022.0
20210121034706 61 149 4.0 9.0 0.00 0.00 0.00 95 1022.0
20210121034158 61 143 3.0 6.0 0.00 0.00 0.00 95 1022.0
20210121033633 61 125 3.0 7.0 0.00 0.00 0.00 95 1022.0
20210121033133 61 179 3.0 7.0 0.00 0.00 0.00 95 1022.0
20210121032606 61 163 2.0 7.0 0.00 0.00 0.00 95 1022.0
20210121032048 61 124 3.0 8.0 0.00 0.00 0.00 95 1022.0
20210121031548 61 147 2.0 8.0 0.00 0.00 0.00 95 1021.9